CheckWX is a tool to help pilots better visualize weather data.  It is not intended as a substitute for an official pre-flight weather briefing.

19:42:38 UTC

KRCR METAR
Fulton County Airport
Rochester, Indiana, USA
Current

28 mins ago

KRCR 191915Z AUTO 31004KT 10SM SCT047 28/17 A2969 RMK AO2 LTG DSNT E
Observed
Jun-19 @ 19:15 UTC
Wind
  • 310° at 4 KTS
Visibility
10 SM
Flight Rules
VFR
Cloud Levels
  • Scattered at 4,700' AGL
Temperature
28°C / 82°F
Dewpoint
17°C / 63°F
Heat Index
28°C / 83°F
Humidity
51%
Altimeter
29.69" Hg
Pressure
1005.42 hPa
Previous

48 mins ago

KRCR 191855Z AUTO 26006KT 10SM SCT045 SCT060 28/17 A2970 RMK AO2 LTG DSNT E
Observed
Jun-19 @ 18:55 UTC
Wind
  • 260° at 6 KTS
Visibility
10 SM
Flight Rules
VFR
Cloud Levels
  • Scattered at 4,500' AGL
  • Scattered at 6,000' AGL
Temperature
28°C / 82°F
Dewpoint
17°C / 63°F
Heat Index
28°C / 83°F
Humidity
51%
Altimeter
29.7" Hg
Pressure
1005.72 hPa
Previous

1 hour ago

KRCR 191835Z AUTO 29004KT 10SM SCT045 SCT050 SCT060 28/17 A2970 RMK AO2 LTG DSNT NE
Observed
Jun-19 @ 18:35 UTC
Wind
  • 290° at 4 KTS
Visibility
10 SM
Flight Rules
VFR
Cloud Levels
  • Scattered at 4,500' AGL
  • Scattered at 5,000' AGL
  • Scattered at 6,000' AGL
Temperature
28°C / 82°F
Dewpoint
17°C / 63°F
Heat Index
28°C / 83°F
Humidity
51%
Altimeter
29.7" Hg
Pressure
1005.72 hPa